Lagoa Alegre, Brazil
Current Conditions -  °F | °C
As of 2:00 AM on Friday 31 Oct 2014 (Local Time) from SBTE Reporting Station
Clear Clear  
Wind Chill: 79°   Ceiling: Unl
Heat Index: 81°   Visibility: 6mi
Dew Point: 64°   Wind: 3mph
Humidity: 61%   Direction: 340°NNW
Pressure: 29.8"   Gusts: NA
Location:  4.52°S, 42.62°W
Report Text: SBTE 310500Z 34003KT CAVOK 26/18 Q1009
Loading
Personal Weather Stations






























Interactive Weather Map
Tropical Storm Tracking
New forecast layout! Learn more

10-Day Weather Forecast

Advertisements
Track Severe Weather on mobile